createdAt,value
2017-08-21T00:00:43.273Z,76
2017-08-21T00:01:42.340Z,76.2
2017-08-21T00:02:41.415Z,76.1
2017-08-21T00:03:40.986Z,76.1
2017-08-21T00:04:40.181Z,76.1
2017-08-21T00:05:39.268Z,76.2
2017-08-21T00:06:38.480Z,76.3
2017-08-21T00:07:37.678Z,76.2
2017-08-21T00:09:36.016Z,76.6
2017-08-21T00:10:35.865Z,76.4
2017-08-21T00:12:33.941Z,76.7
2017-08-21T00:13:33.511Z,76.5
2017-08-21T00:15:31.866Z,76.6
2017-08-21T00:16:30.822Z,76.4
2017-08-21T00:17:30.509Z,76
2017-08-21T00:18:29.587Z,76.1
2017-08-21T00:19:28.665Z,76.4
2017-08-21T00:20:28.243Z,76.5
2017-08-21T00:21:27.307Z,76.4
2017-08-21T00:23:25.889Z,76.7
2017-08-21T00:24:25.464Z,76.6
2017-08-21T00:27:22.943Z,76.7
2017-08-21T00:28:22.307Z,76.8
2017-08-21T00:29:21.501Z,76.7
2017-08-21T00:30:20.578Z,76.7
2017-08-21T00:31:20.280Z,76.8
2017-08-21T00:32:19.475Z,76.8
2017-08-21T00:33:18.663Z,76.7
2017-08-21T00:34:17.865Z,76.8
2017-08-21T00:37:15.332Z,76.5
2017-08-21T00:38:15.028Z,76.9
2017-08-21T00:40:13.098Z,76.6
2017-08-21T00:42:11.675Z,76.2
2017-08-21T00:43:10.856Z,76.5
2017-08-21T00:44:10.561Z,76.3
2017-08-21T00:45:09.705Z,76.7
2017-08-21T00:46:08.896Z,76.5
2017-08-21T00:47:08.106Z,76.8
2017-08-21T00:48:07.176Z,76.5
2017-08-21T00:49:06.750Z,76.5
2017-08-21T00:51:05.330Z,76.4
2017-08-21T00:52:04.281Z,76.5
2017-08-21T00:53:03.470Z,76.3
2017-08-21T00:54:02.939Z,76.3
2017-08-21T00:55:02.400Z,76.5
2017-08-21T00:56:01.245Z,76.9
2017-08-21T00:57:00.936Z,76.5
2017-08-21T00:57:31.473Z,76.5
2017-08-21T00:58:01.974Z,76.7
2017-08-21T00:58:59.154Z,76.9
2017-08-21T00:59:58.368Z,77.4
2017-08-21T01:01:56.939Z,77.3
2017-08-21T01:02:56.063Z,77.1
2017-08-21T01:04:54.523Z,77
2017-08-21T01:06:52.982Z,76.6
2017-08-21T01:09:50.950Z,76.8
2017-08-21T01:11:49.526Z,77.7
2017-08-21T01:12:48.876Z,77.4
2017-08-21T01:14:47.338Z,77.2
2017-08-21T01:15:46.524Z,77.4
2017-08-21T01:16:45.730Z,78
2017-08-21T01:17:44.805Z,77.7
2017-08-21T01:18:44.512Z,77.8
2017-08-21T01:19:43.711Z,78
2017-08-21T01:20:42.790Z,77.8
2017-08-21T01:21:41.903Z,77.8
2017-08-21T01:22:41.475Z,78.2
2017-08-21T01:23:40.672Z,78.2
2017-08-21T01:24:39.898Z,77.7
2017-08-21T01:25:10.281Z,77.7
2017-08-21T01:25:40.662Z,78.4
2017-08-21T01:26:11.171Z,78.4
2017-08-21T01:27:37.551Z,78.6
2017-08-21T01:28:07.939Z,78.6
2017-08-21T01:29:35.819Z,78.7
2017-08-21T01:30:35.270Z,78.6
2017-08-21T01:32:33.845Z,79.1
2017-08-21T01:34:32.086Z,79.2
2017-08-21T01:35:31.788Z,79.1
2017-08-21T01:36:30.855Z,79.2
2017-08-21T01:43:25.564Z,80
2017-08-21T01:44:24.757Z,79.9
2017-08-21T01:46:23.359Z,80.3
2017-08-21T01:47:22.545Z,80.2
2017-08-21T01:48:21.768Z,80.2
2017-08-21T01:49:20.834Z,80.3
2017-08-21T01:53:18.198Z,80.4
2017-08-21T01:54:17.393Z,80.3
2017-08-21T01:55:16.589Z,80.2
2017-08-21T01:56:15.677Z,80.5
2017-08-21T01:57:15.248Z,80.9
2017-08-21T01:58:14.418Z,80.9
2017-08-21T01:59:13.489Z,80.8
2017-08-21T02:00:12.685Z,81
2017-08-21T02:02:11.262Z,80.6
2017-08-21T02:03:10.454Z,81
2017-08-21T02:04:09.646Z,80.9
2017-08-21T02:05:08.876Z,81.2
2017-08-21T02:07:07.729Z,81.5
2017-08-21T02:08:06.800Z,81.1
2017-08-21T02:09:05.976Z,81.4
2017-08-21T02:10:05.045Z,81.7
2017-08-21T02:11:04.495Z,81.9
2017-08-21T02:14:02.468Z,82
2017-08-21T02:16:59.687Z,81.9
2017-08-21T02:17:59.388Z,82.2
2017-08-21T02:19:57.870Z,82.2
2017-08-21T02:20:57.060Z,82.2
2017-08-21T02:21:56.321Z,82.7
2017-08-21T02:22:55.381Z,82.7
2017-08-21T02:23:54.583Z,82.7
2017-08-21T02:24:53.762Z,82.5
2017-08-21T02:26:52.243Z,83.4
2017-08-21T02:27:51.829Z,83.2
2017-08-21T02:28:50.915Z,82.7
2017-08-21T02:29:50.089Z,82.8
2017-08-21T02:30:49.163Z,83.3
2017-08-21T02:31:48.749Z,83
2017-08-21T02:33:46.768Z,82.6
2017-08-21T02:34:46.469Z,82.5
2017-08-21T02:35:45.425Z,82.7
2017-08-21T02:36:44.897Z,83
2017-08-21T02:37:43.992Z,83
2017-08-21T02:38:43.194Z,83.8
2017-08-21T02:39:42.544Z,83.3
2017-08-21T02:41:41.022Z,84
2017-08-21T02:42:39.994Z,83.8
2017-08-21T02:43:39.195Z,83.7
2017-08-21T02:44:38.661Z,84.3
2017-08-21T02:45:37.749Z,83.7
2017-08-21T02:46:36.931Z,83.4
2017-08-21T02:47:36.516Z,83.7
2017-08-21T02:49:34.657Z,83.9
2017-08-21T02:50:34.252Z,83.8
2017-08-21T02:51:33.085Z,84.1
2017-08-21T02:52:32.682Z,83.9
2017-08-21T02:53:31.887Z,84.2
2017-08-21T02:54:31.085Z,84.4
2017-08-21T02:56:29.551Z,84
2017-08-21T02:57:28.633Z,83.8
2017-08-21T02:58:27.817Z,84.2
2017-08-21T03:00:26.264Z,84.2
2017-08-21T03:03:24.226Z,84.3
2017-08-21T03:05:22.674Z,84
2017-08-21T03:06:21.874Z,84.3
2017-08-21T03:08:20.346Z,84.4
2017-08-21T03:09:19.534Z,84.2
2017-08-21T03:10:18.722Z,84.1
2017-08-21T03:11:17.913Z,84.9
2017-08-21T03:12:17.106Z,84.6
2017-08-21T03:13:16.185Z,85.3
2017-08-21T03:14:15.631Z,84.8
2017-08-21T03:17:13.583Z,84.8
2017-08-21T03:18:12.533Z,84.9
2017-08-21T03:20:11.111Z,84.7
2017-08-21T03:21:10.179Z,84.5
2017-08-21T03:22:09.358Z,84.6
2017-08-21T03:23:08.435Z,84.6
2017-08-21T03:26:06.405Z,85.3
2017-08-21T03:27:05.489Z,85.2
2017-08-21T03:28:04.965Z,85.8
2017-08-21T03:29:04.039Z,85.4
2017-08-21T03:30:03.233Z,85.6
2017-08-21T03:31:02.714Z,85.4
2017-08-21T03:32:01.917Z,85.3
2017-08-21T03:34:00.515Z,85.2
2017-08-21T03:34:59.739Z,85.6
2017-08-21T03:35:58.935Z,85.7
2017-08-21T03:37:57.015Z,85.8
2017-08-21T03:38:56.203Z,85.7
2017-08-21T03:40:54.788Z,86.5
2017-08-21T03:42:53.146Z,86.1
2017-08-21T03:43:52.359Z,86.3
2017-08-21T03:44:51.553Z,86.4
2017-08-21T03:46:50.143Z,86.1
2017-08-21T03:47:49.214Z,86.2
2017-08-21T03:50:46.957Z,86
2017-08-21T03:51:46.535Z,86.3
2017-08-21T03:53:44.515Z,86.4
2017-08-21T03:55:43.093Z,85.7
2017-08-21T03:56:42.427Z,85.7
2017-08-21T03:57:41.610Z,86
2017-08-21T03:59:40.195Z,86
2017-08-21T04:00:39.268Z,86.3
2017-08-21T04:02:37.712Z,86.1
2017-08-21T04:04:36.178Z,86.1
2017-08-21T04:05:35.366Z,86.4
2017-08-21T04:07:33.706Z,86.3
2017-08-21T04:09:32.307Z,86.5
2017-08-21T04:10:31.761Z,86.1
2017-08-21T04:11:30.831Z,85.7
2017-08-21T04:14:28.672Z,86.4
2017-08-21T04:15:27.758Z,86.1
2017-08-21T04:16:26.958Z,85.8
2017-08-21T04:17:26.150Z,85.6
2017-08-21T04:18:25.347Z,86.4
2017-08-21T04:19:24.688Z,86.1
2017-08-21T04:21:22.787Z,86.4
2017-08-21T04:22:21.989Z,86.1
2017-08-21T04:23:21.690Z,86.3
2017-08-21T04:26:19.036Z,85.7
2017-08-21T04:27:18.514Z,85.5
2017-08-21T04:31:15.358Z,85.4
2017-08-21T04:32:14.427Z,85.1
2017-08-21T04:34:12.905Z,85.8
2017-08-21T04:35:12.104Z,85.7
2017-08-21T04:36:11.285Z,85.7
2017-08-21T04:37:10.354Z,85.6
2017-08-21T04:38:09.543Z,85.7
2017-08-21T04:39:08.743Z,85.7
2017-08-21T04:40:08.325Z,85.8
2017-08-21T04:41:07.538Z,85.8
2017-08-21T04:42:06.733Z,85.9
2017-08-21T04:43:05.927Z,86
2017-08-21T04:44:05.126Z,86.2
2017-08-21T04:45:04.194Z,86
2017-08-21T04:46:03.381Z,86.1
2017-08-21T04:47:02.584Z,86.4
2017-08-21T04:49:01.039Z,86.2
2017-08-21T04:50:00.385Z,85.9
2017-08-21T04:50:59.468Z,86.1
2017-08-21T04:51:58.647Z,86.4
2017-08-21T04:52:57.830Z,86.5
2017-08-21T04:53:57.012Z,86.3
2017-08-21T04:54:56.208Z,86
2017-08-21T04:55:55.783Z,86
2017-08-21T04:56:54.972Z,86.1
2017-08-21T04:57:53.921Z,85.8
2017-08-21T04:58:53.496Z,86.2
2017-08-21T04:59:52.442Z,86
2017-08-21T05:00:51.627Z,86.2
2017-08-21T05:01:50.818Z,85.7
2017-08-21T05:03:49.301Z,85.5
2017-08-21T05:04:48.483Z,85.6
2017-08-21T05:05:47.692Z,85.9
2017-08-21T05:06:46.883Z,85.8
2017-08-21T05:07:46.073Z,85.8
2017-08-21T05:09:44.393Z,85.5
2017-08-21T05:10:43.854Z,85.3
2017-08-21T05:11:42.816Z,84.8
2017-08-21T05:12:42.282Z,84.7
2017-08-21T05:13:41.462Z,85.1
2017-08-21T05:14:40.617Z,84.9
2017-08-21T05:15:40.197Z,84.9
2017-08-21T05:16:39.270Z,84.8
2017-08-21T05:17:38.458Z,85.2
2017-08-21T05:18:37.648Z,85
2017-08-21T05:19:36.720Z,84.8
2017-08-21T05:20:36.300Z,84.9
2017-08-21T05:21:35.375Z,84.8
2017-08-21T05:22:34.716Z,84.6
2017-08-21T05:23:33.709Z,84.6
2017-08-21T05:24:32.885Z,84.5
2017-08-21T05:25:31.960Z,84.1
2017-08-21T05:26:31.162Z,84
2017-08-21T05:27:30.517Z,83.9
2017-08-21T05:28:30.033Z,83.7
2017-08-21T05:30:28.443Z,83.4
2017-08-21T05:31:27.516Z,83.3
2017-08-21T05:32:26.715Z,83.1
2017-08-21T05:33:25.921Z,83.1
2017-08-21T05:34:25.258Z,83.3
2017-08-21T05:36:23.831Z,82.6
2017-08-21T05:37:23.022Z,83
2017-08-21T05:38:22.082Z,83
2017-08-21T05:39:21.270Z,83.1
2017-08-21T05:40:20.330Z,83
2017-08-21T05:41:19.523Z,82.6
2017-08-21T05:42:18.723Z,83
2017-08-21T05:43:17.910Z,82.9
2017-08-21T05:44:17.602Z,82.8
2017-08-21T05:45:16.791Z,82.9
2017-08-21T05:46:15.864Z,83.4
2017-08-21T05:47:15.046Z,82.4
2017-08-21T05:48:14.247Z,82.6
2017-08-21T05:49:13.438Z,83
2017-08-21T05:51:11.774Z,82
2017-08-21T05:52:11.341Z,81.6
2017-08-21T05:53:10.412Z,81.1
2017-08-21T05:54:09.491Z,80.9
2017-08-21T05:55:08.684Z,80.7
2017-08-21T05:56:07.886Z,81
2017-08-21T05:57:07.472Z,81.1
2017-08-21T05:58:06.669Z,81.2
2017-08-21T05:59:05.635Z,81
2017-08-21T06:00:04.820Z,80.7
2017-08-21T06:01:04.011Z,80.5
2017-08-21T06:02:03.593Z,80.3
2017-08-21T06:03:02.806Z,80.2
2017-08-21T06:04:01.986Z,79.7
2017-08-21T06:05:01.207Z,79.5
2017-08-21T06:06:00.166Z,79.6
2017-08-21T06:06:59.357Z,79
2017-08-21T06:08:57.940Z,78.8
2017-08-21T06:09:56.904Z,79
2017-08-21T06:10:56.598Z,79.2
2017-08-21T06:11:55.668Z,79.5
2017-08-21T06:12:54.865Z,78.8
2017-08-21T06:13:53.822Z,79
2017-08-21T06:14:53.396Z,78.5
2017-08-21T06:15:52.463Z,77.7
2017-08-21T06:16:52.034Z,77.2
2017-08-21T06:17:51.228Z,77
2017-08-21T06:18:50.423Z,77.5
2017-08-21T06:19:49.613Z,77.5
2017-08-21T06:20:48.560Z,77.1
2017-08-21T06:21:48.155Z,76.7
2017-08-21T06:22:46.985Z,76.6
2017-08-21T06:23:46.699Z,76.8
2017-08-21T06:24:45.778Z,76.3
2017-08-21T06:25:44.854Z,76.4
2017-08-21T06:27:43.328Z,76.9
2017-08-21T06:28:42.907Z,76.9
2017-08-21T06:29:42.097Z,77
2017-08-21T06:30:41.288Z,76.8
2017-08-21T06:31:40.383Z,77.2
2017-08-21T06:32:39.838Z,76.8
2017-08-21T06:33:39.027Z,76.8
2017-08-21T06:34:38.216Z,77.1
2017-08-21T06:35:37.404Z,76.8
2017-08-21T06:36:36.589Z,75.9
2017-08-21T06:37:35.791Z,75.9
2017-08-21T06:39:34.256Z,75.3
2017-08-21T06:40:33.458Z,75.6
2017-08-21T06:41:32.533Z,74.9
2017-08-21T06:44:30.497Z,75.5
2017-08-21T06:45:29.676Z,75.5
2017-08-21T06:46:28.620Z,75.2
2017-08-21T06:47:28.080Z,74.9
2017-08-21T06:47:58.341Z,74.9
2017-08-21T06:48:29.114Z,74.6
2017-08-21T06:50:26.171Z,74
2017-08-21T06:51:25.361Z,74.1
2017-08-21T06:53:23.958Z,73.9
2017-08-21T06:55:22.044Z,73.8
2017-08-21T06:56:21.247Z,73.4
2017-08-21T06:57:20.829Z,73.5
2017-08-21T06:58:19.904Z,73
2017-08-21T06:58:50.409Z,73
2017-08-21T06:59:20.798Z,71.2
2017-08-21T06:59:51.457Z,71.2
2017-08-21T07:00:21.952Z,71.8
2017-08-21T07:00:52.451Z,71.8
2017-08-21T07:01:22.827Z,72
2017-08-21T07:01:53.344Z,72
2017-08-21T07:03:16.198Z,71.2
2017-08-21T07:04:15.274Z,70.8
2017-08-21T07:05:14.849Z,71.3
2017-08-21T07:06:13.812Z,71
2017-08-21T07:07:13.389Z,71.6
2017-08-21T07:08:12.342Z,70.8
2017-08-21T07:09:11.552Z,70.8
2017-08-21T07:10:11.136Z,70.8
2017-08-21T07:11:10.332Z,70.6
2017-08-21T07:12:09.299Z,70.4
2017-08-21T07:13:08.879Z,70.3
2017-08-21T07:14:07.945Z,70.1
2017-08-21T07:15:07.154Z,69.7
2017-08-21T07:16:06.344Z,69.6
2017-08-21T07:17:06.043Z,68.5
2017-08-21T07:19:04.503Z,69.6
2017-08-21T07:21:03.080Z,69.6
2017-08-21T07:22:02.163Z,69.3
2017-08-21T07:24:00.631Z,68
2017-08-21T07:25:00.102Z,68.1
2017-08-21T07:25:59.169Z,68.3
2017-08-21T07:26:58.372Z,68.4
2017-08-21T07:27:57.811Z,69
2017-08-21T07:29:56.150Z,68.2
2017-08-21T07:30:55.728Z,68.9
2017-08-21T07:31:54.921Z,68.9
2017-08-21T07:32:54.130Z,69.1
2017-08-21T07:33:53.332Z,67.9
2017-08-21T07:34:52.526Z,67.2
2017-08-21T07:36:51.109Z,66.8
2017-08-21T07:37:50.222Z,66.8
2017-08-21T07:38:49.810Z,67
2017-08-21T07:39:49.005Z,67.5
2017-08-21T07:40:48.213Z,67.4
2017-08-21T07:41:18.719Z,67.4
2017-08-21T07:43:45.742Z,65.9
2017-08-21T07:45:44.583Z,66.9
2017-08-21T07:46:43.655Z,67
2017-08-21T07:47:43.219Z,67.6
2017-08-21T07:48:42.435Z,67.2
2017-08-21T07:49:41.508Z,66.9
2017-08-21T07:52:39.234Z,66.2
2017-08-21T07:53:38.436Z,65.1
2017-08-21T07:54:38.138Z,65.9
2017-08-21T07:57:35.590Z,65.7
2017-08-21T07:58:35.170Z,65.3
2017-08-21T07:59:34.248Z,65.7
2017-08-21T08:00:33.430Z,65.7
2017-08-21T08:01:33.012Z,65.6
2017-08-21T08:02:31.956Z,65.5
2017-08-21T08:03:31.160Z,66.4
2017-08-21T08:04:30.863Z,65.8
2017-08-21T08:05:29.923Z,66.2
2017-08-21T08:06:29.128Z,66.2
2017-08-21T08:07:28.325Z,66.1
2017-08-21T08:08:28.017Z,66
2017-08-21T08:10:26.082Z,66.4
2017-08-21T08:11:25.544Z,65.9
2017-08-21T08:13:24.012Z,66.6
2017-08-21T08:14:23.212Z,66.4
2017-08-21T08:15:22.798Z,65.9
2017-08-21T08:16:22.005Z,65.6
2017-08-21T08:18:20.594Z,65.4
2017-08-21T08:19:19.686Z,65.2
2017-08-21T08:21:18.149Z,64.2
2017-08-21T08:22:17.736Z,64.3
2017-08-21T08:23:16.814Z,64.8
2017-08-21T08:25:15.787Z,65.4
2017-08-21T08:26:14.853Z,64.7
2017-08-21T08:27:14.196Z,64.2
2017-08-21T08:28:13.386Z,64.6
2017-08-21T08:29:12.474Z,65.3
2017-08-21T08:30:12.177Z,63.1
2017-08-21T08:32:10.542Z,63
2017-08-21T08:34:08.990Z,63
2017-08-21T08:35:08.192Z,63.3
2017-08-21T08:36:07.286Z,63
2017-08-21T08:37:06.980Z,62.6
2017-08-21T08:38:05.940Z,62.2
2017-08-21T08:39:05.275Z,61.8
2017-08-21T08:40:05.005Z,60
2017-08-21T08:41:03.968Z,60.4
2017-08-21T08:42:03.171Z,61.2
2017-08-21T08:43:02.503Z,61.2
2017-08-21T08:44:01.591Z,61.3
2017-08-21T08:45:00.949Z,61.9
2017-08-21T08:46:00.539Z,61.1
2017-08-21T08:47:58.881Z,61
2017-08-21T08:49:57.460Z,61.8
2017-08-21T08:50:57.028Z,61.9
2017-08-21T08:52:55.493Z,61
2017-08-21T08:53:54.745Z,62
2017-08-21T08:54:53.936Z,60.9
2017-08-21T08:55:53.641Z,60.7
2017-08-21T08:56:52.383Z,60.4
2017-08-21T08:57:52.095Z,60.8
2017-08-21T08:58:51.434Z,60.7
2017-08-21T08:59:50.505Z,61
2017-08-21T09:00:49.707Z,60.2
2017-08-21T09:01:49.410Z,59.9
2017-08-21T09:03:48.001Z,60.4
2017-08-21T09:04:46.852Z,60.5
2017-08-21T09:06:45.819Z,60.3
2017-08-21T09:07:44.661Z,60
2017-08-21T09:08:44.116Z,60.2
2017-08-21T09:09:43.699Z,60.8
2017-08-21T09:10:42.899Z,60.2
2017-08-21T09:11:41.970Z,60.4
2017-08-21T09:12:41.556Z,60.4
2017-08-21T09:13:40.744Z,60.5
2017-08-21T09:15:39.601Z,61.6
2017-08-21T09:17:38.053Z,61.4
2017-08-21T09:18:08.560Z,61.4
2017-08-21T09:18:39.072Z,61.7
2017-08-21T09:19:09.463Z,61.7
2017-08-21T09:19:39.963Z,61.5
2017-08-21T09:20:10.230Z,61.5
2017-08-21T09:23:33.892Z,61.1
2017-08-21T09:24:32.970Z,60.2
2017-08-21T09:25:32.053Z,60.2
2017-08-21T09:26:31.631Z,60.5
2017-08-21T09:28:30.231Z,61.2
2017-08-21T09:31:28.090Z,61.2
2017-08-21T09:33:26.938Z,61.8
2017-08-21T09:34:26.033Z,61
2017-08-21T09:37:23.900Z,60.5
2017-08-21T09:38:23.090Z,60.9
2017-08-21T09:39:22.660Z,61.1
2017-08-21T09:40:21.849Z,60.6
2017-08-21T09:41:21.414Z,60.5
2017-08-21T09:42:20.490Z,60.4
2017-08-21T09:43:19.957Z,60.6
2017-08-21T09:44:18.793Z,60.6
2017-08-21T09:45:18.371Z,60.6
2017-08-21T09:46:17.456Z,60.5
2017-08-21T09:47:16.796Z,60.6
2017-08-21T09:48:16.514Z,60.6
2017-08-21T09:49:15.589Z,60
2017-08-21T09:50:14.788Z,60.2
2017-08-21T09:53:13.142Z,59
2017-08-21T09:55:11.722Z,60.6
2017-08-21T09:56:10.792Z,59.2
2017-08-21T09:58:09.260Z,59.3
2017-08-21T10:00:07.858Z,58.9
2017-08-21T10:01:07.449Z,59
2017-08-21T10:02:06.408Z,58.7
2017-08-21T10:05:04.654Z,58.8
2017-08-21T10:06:03.608Z,59.5
2017-08-21T10:10:00.971Z,60.5
2017-08-21T10:10:31.483Z,60.5
2017-08-21T10:11:59.765Z,58.8
2017-08-21T10:12:58.960Z,59.7
2017-08-21T10:18:54.880Z,59.7
2017-08-21T10:19:54.564Z,59.8
2017-08-21T10:20:53.762Z,60
2017-08-21T10:23:51.735Z,58.6
2017-08-21T10:24:50.809Z,56.9
2017-08-21T10:25:50.377Z,57.7
2017-08-21T10:26:49.448Z,56.7
2017-08-21T10:27:48.655Z,57.4
2017-08-21T10:29:47.394Z,57.5
2017-08-21T10:30:46.970Z,57.1
2017-08-21T10:31:46.154Z,56.4
2017-08-21T10:32:45.254Z,56.8
2017-08-21T10:34:44.232Z,56.1
2017-08-21T10:35:43.316Z,55.9
2017-08-21T10:36:42.509Z,56.1
2017-08-21T10:37:42.108Z,56.2
2017-08-21T10:38:41.181Z,55.4
2017-08-21T10:39:40.759Z,56.3
2017-08-21T10:41:39.107Z,54.8
2017-08-21T10:42:38.562Z,55.7
2017-08-21T10:45:36.405Z,56.4
2017-08-21T10:48:34.761Z,56.9
2017-08-21T10:49:33.720Z,56.4
2017-08-21T10:50:33.299Z,55.2
2017-08-21T10:51:32.492Z,56
2017-08-21T10:53:31.365Z,54.9
2017-08-21T10:54:30.450Z,55.9
2017-08-21T10:55:29.643Z,55.6
2017-08-21T10:56:29.349Z,55.1
2017-08-21T10:58:27.832Z,55.5
2017-08-21T10:59:26.898Z,55.8
2017-08-21T11:00:26.600Z,55.1
2017-08-21T11:01:25.555Z,55.8
2017-08-21T11:02:25.127Z,55.5
2017-08-21T11:03:24.327Z,55
2017-08-21T11:04:23.792Z,54.8
2017-08-21T11:05:23.134Z,54
2017-08-21T11:05:53.529Z,54
2017-08-21T11:06:24.038Z,54.7
2017-08-21T11:06:54.418Z,54.7
2017-08-21T11:07:24.810Z,54.7
2017-08-21T11:08:20.987Z,54.4
2017-08-21T11:10:19.944Z,52.3
2017-08-21T11:11:19.281Z,52.9
2017-08-21T11:12:18.490Z,53.4
2017-08-21T11:13:17.689Z,54.3
2017-08-21T11:14:17.150Z,53.6
2017-08-21T11:15:16.220Z,52.5
2017-08-21T11:17:14.792Z,53.4
2017-08-21T11:18:14.500Z,53.3
2017-08-21T11:19:13.461Z,54.4
2017-08-21T11:20:13.062Z,54.6
2017-08-21T11:21:12.271Z,54.2
2017-08-21T11:22:11.866Z,53.8
2017-08-21T11:23:10.813Z,54.4
2017-08-21T11:27:08.172Z,54.6
2017-08-21T11:29:07.135Z,55.8
2017-08-21T11:31:05.716Z,55.3
2017-08-21T11:32:04.910Z,54.5
2017-08-21T11:33:04.597Z,54.9
2017-08-21T11:34:03.783Z,54.6
2017-08-21T11:35:02.855Z,53.5
2017-08-21T11:37:01.835Z,53.1
2017-08-21T11:38:00.917Z,52.6
2017-08-21T11:38:31.438Z,52.6
2017-08-21T11:39:01.949Z,52.5
2017-08-21T11:39:59.784Z,51.3
2017-08-21T11:40:59.002Z,50.2
2017-08-21T11:41:58.470Z,50.4
2017-08-21T11:42:57.672Z,50.2
2017-08-21T11:43:56.756Z,50.8
2017-08-21T11:44:56.447Z,51.1
2017-08-21T11:45:55.649Z,52.1
2017-08-21T11:46:55.225Z,50.8
2017-08-21T11:47:54.331Z,51.7
2017-08-21T11:48:54.028Z,50.9
2017-08-21T11:49:53.231Z,50.7
2017-08-21T11:51:51.825Z,51.5
2017-08-21T11:52:51.409Z,51.2
2017-08-21T11:53:50.486Z,51.3
2017-08-21T11:54:49.676Z,52.2
2017-08-21T11:55:49.269Z,51.1
2017-08-21T11:56:48.451Z,51.5
2017-08-21T11:58:47.293Z,50.8
2017-08-21T12:00:46.145Z,51.7
2017-08-21T12:01:45.369Z,53.4
2017-08-21T12:02:44.824Z,52.3
2017-08-21T12:03:43.903Z,52.4
2017-08-21T12:04:43.107Z,50.1
2017-08-21T12:05:42.564Z,50.6
2017-08-21T12:06:42.135Z,50.5
2017-08-21T12:08:40.592Z,51.8
2017-08-21T12:09:39.794Z,52.4
2017-08-21T12:10:39.373Z,53.2
2017-08-21T12:11:38.563Z,52.2
2017-08-21T12:12:38.129Z,52.7
2017-08-21T12:13:37.326Z,51.9
2017-08-21T12:16:35.560Z,52.5
2017-08-21T12:17:34.652Z,51.8
2017-08-21T12:18:34.360Z,52.3
2017-08-21T12:19:33.549Z,52.3
2017-08-21T12:20:32.624Z,51.9
2017-08-21T12:24:30.254Z,51.5
2017-08-21T12:25:29.204Z,51.7
2017-08-21T12:26:28.787Z,52.1
2017-08-21T12:27:28.370Z,52.5
2017-08-21T12:28:27.590Z,52.6
2017-08-21T12:29:26.791Z,52
2017-08-21T12:31:25.753Z,53.2
2017-08-21T12:32:24.975Z,53.3
2017-08-21T12:33:24.436Z,52.2
2017-08-21T12:34:23.515Z,52.6
2017-08-21T12:35:23.109Z,52.7
2017-08-21T12:36:22.186Z,52.4
2017-08-21T12:37:21.768Z,52.6
2017-08-21T12:38:20.973Z,53.5
2017-08-21T12:39:20.056Z,52.5
2017-08-21T12:40:19.741Z,51.9
2017-08-21T12:41:18.809Z,51.8
2017-08-21T12:42:18.394Z,51.5
2017-08-21T12:43:17.459Z,51.8
2017-08-21T12:44:17.031Z,51.9
2017-08-21T12:45:16.092Z,52.9
2017-08-21T12:46:15.550Z,52.2
2017-08-21T12:47:14.774Z,52.2
2017-08-21T12:47:45.285Z,52.2
2017-08-21T12:49:13.819Z,52.8
2017-08-21T12:50:12.775Z,51.8
2017-08-21T12:51:12.345Z,53.2
2017-08-21T12:52:11.807Z,53.7
2017-08-21T12:53:11.015Z,53
2017-08-21T12:54:10.219Z,53.3
2017-08-21T12:55:09.677Z,53.4
2017-08-21T12:56:09.017Z,54
2017-08-21T12:57:08.212Z,53.6
2017-08-21T12:58:07.912Z,53.4
2017-08-21T12:59:07.101Z,53.7
2017-08-21T13:00:06.306Z,53.7
2017-08-21T13:01:05.997Z,53.4
2017-08-21T13:02:05.198Z,53.8
2017-08-21T13:03:04.407Z,53.6
2017-08-21T13:04:03.608Z,54.1
2017-08-21T13:05:03.198Z,54
2017-08-21T13:06:02.271Z,54.2
2017-08-21T13:07:01.612Z,53.9
2017-08-21T13:08:01.197Z,54.2
2017-08-21T13:09:00.277Z,54.4
2017-08-21T13:09:59.967Z,55.1
2017-08-21T13:10:59.032Z,54.3
2017-08-21T13:12:57.999Z,53.7
2017-08-21T13:13:57.064Z,52.8
2017-08-21T13:14:56.759Z,52.3
2017-08-21T13:15:55.602Z,52.7
2017-08-21T13:16:55.068Z,51.9
2017-08-21T13:17:54.650Z,51.5
2017-08-21T13:18:53.595Z,50.4
2017-08-21T13:19:53.291Z,50.7
2017-08-21T13:20:52.871Z,51.6
2017-08-21T13:21:51.930Z,51.2
2017-08-21T13:22:51.116Z,51.9
2017-08-21T13:23:50.571Z,52.7
2017-08-21T13:25:49.036Z,51.7
2017-08-21T13:26:48.629Z,52.3
2017-08-21T13:27:48.088Z,49.4
2017-08-21T13:28:47.290Z,49.9
2017-08-21T13:30:46.152Z,48.6
2017-08-21T13:31:45.235Z,48.9
2017-08-21T13:32:44.931Z,49.4
2017-08-21T13:33:44.284Z,49
2017-08-21T13:34:43.364Z,51.8
2017-08-21T13:35:42.942Z,50.4
2017-08-21T13:36:42.014Z,50.6
2017-08-21T13:37:41.480Z,50.4
2017-08-21T13:38:40.678Z,50.5
2017-08-21T13:40:39.765Z,50.9
2017-08-21T13:41:38.844Z,51.2
2017-08-21T13:42:38.422Z,50.8
2017-08-21T13:43:37.628Z,50.7
2017-08-21T13:44:37.037Z,50.8
2017-08-21T13:45:36.466Z,51.6
2017-08-21T13:46:35.970Z,51.2
2017-08-21T13:48:34.426Z,51.4
2017-08-21T13:49:33.900Z,51.4
2017-08-21T13:50:32.994Z,50.8
2017-08-21T13:51:32.456Z,50.4
2017-08-21T13:52:31.916Z,50.6
2017-08-21T13:53:30.882Z,51.5
2017-08-21T13:54:30.464Z,51.2
2017-08-21T13:55:30.045Z,51.1
2017-08-21T13:56:29.130Z,50.9
2017-08-21T13:57:28.839Z,51.3
2017-08-21T13:58:27.926Z,50.1
2017-08-21T13:59:27.388Z,50.1
2017-08-21T14:00:26.346Z,50.3
2017-08-21T14:01:26.062Z,50.7
2017-08-21T14:02:25.258Z,50.5
2017-08-21T14:03:24.831Z,50.3
2017-08-21T14:04:23.914Z,51
2017-08-21T14:05:23.481Z,51.1
2017-08-21T14:06:22.819Z,50.3
2017-08-21T14:07:22.289Z,51.1
2017-08-21T14:08:21.755Z,50.4
2017-08-21T14:09:20.823Z,49.4
2017-08-21T14:10:20.015Z,49.9
2017-08-21T14:11:19.704Z,49.3
2017-08-21T14:12:18.893Z,48.9
2017-08-21T14:14:17.868Z,49.1
2017-08-21T14:15:16.830Z,49.6
2017-08-21T14:16:16.402Z,49.1
2017-08-21T14:17:15.868Z,48.1
2017-08-21T14:19:14.454Z,48.7
2017-08-21T14:20:13.811Z,47.1
2017-08-21T14:21:13.384Z,46.7
2017-08-21T14:23:11.848Z,47.1
2017-08-21T14:24:11.545Z,50.4
2017-08-21T14:25:10.749Z,47.8
2017-08-21T14:26:10.330Z,48.1
2017-08-21T14:27:09.530Z,47.1
2017-08-21T14:28:08.716Z,47.1
2017-08-21T14:29:08.411Z,47.6
2017-08-21T14:30:07.488Z,45.5
2017-08-21T14:31:07.205Z,45.1
2017-08-21T14:32:06.273Z,43.9
2017-08-21T14:33:05.852Z,45.1
2017-08-21T14:34:04.810Z,44.6
2017-08-21T14:35:04.394Z,45.6
2017-08-21T14:36:03.748Z,44.5
2017-08-21T14:37:03.217Z,45.2
2017-08-21T14:38:02.464Z,44.5
2017-08-21T14:39:02.058Z,45.9
2017-08-21T14:40:01.261Z,45
2017-08-21T14:41:00.484Z,45.9
2017-08-21T14:42:00.110Z,46
2017-08-21T14:42:59.684Z,46.8
2017-08-21T14:43:58.886Z,46.2
2017-08-21T14:44:58.095Z,46.8
2017-08-21T14:45:57.542Z,45.3
2017-08-21T14:46:57.156Z,46.3
2017-08-21T14:47:56.304Z,47.9
2017-08-21T14:48:55.884Z,45.9
2017-08-21T14:49:55.080Z,45.4
2017-08-21T14:50:54.662Z,45.9
2017-08-21T14:51:53.732Z,45.6
2017-08-21T14:52:53.071Z,47.8
2017-08-21T14:53:52.528Z,45.9
2017-08-21T14:54:52.353Z,45.2
2017-08-21T14:55:51.700Z,45.9
2017-08-21T14:56:50.774Z,47.6
2017-08-21T14:57:50.360Z,47.2
2017-08-21T14:58:49.433Z,48.1
2017-08-21T14:59:49.003Z,46.1
2017-08-21T15:00:48.071Z,45
2017-08-21T15:01:47.537Z,44
2017-08-21T15:02:47.013Z,45.1
2017-08-21T15:03:46.592Z,44.5
2017-08-21T15:04:46.182Z,45.5
2017-08-21T15:05:45.257Z,45.8
2017-08-21T15:06:44.956Z,44.1
2017-08-21T15:07:43.911Z,43.8
2017-08-21T15:08:14.302Z,43.8
2017-08-21T15:08:44.845Z,44
2017-08-21T15:09:15.332Z,44
2017-08-21T15:10:42.093Z,44.5
2017-08-21T15:11:41.663Z,44.6
2017-08-21T15:12:41.128Z,43.6
2017-08-21T15:13:40.344Z,42.8
2017-08-21T15:14:39.943Z,43.8
2017-08-21T15:15:39.165Z,43.9
2017-08-21T15:16:38.624Z,44
2017-08-21T15:18:37.221Z,43.1
2017-08-21T15:19:36.798Z,44.2
2017-08-21T15:20:36.389Z,44.9
2017-08-21T15:21:35.463Z,45.2
2017-08-21T15:24:33.841Z,45.5
2017-08-21T15:25:33.042Z,46.2
2017-08-21T15:26:32.628Z,46.2
2017-08-21T15:27:31.587Z,47.1
2017-08-21T15:28:31.050Z,46
2017-08-21T15:29:30.628Z,46.1
2017-08-21T15:30:29.807Z,46.2
2017-08-21T15:31:29.389Z,46.5
2017-08-21T15:32:28.462Z,45.4
2017-08-21T15:33:28.161Z,45.9
2017-08-21T15:34:27.742Z,46
2017-08-21T15:35:27.077Z,45
2017-08-21T15:36:26.157Z,45.3
2017-08-21T15:37:25.868Z,46.4
2017-08-21T15:38:24.941Z,44.7
2017-08-21T15:39:24.647Z,45.3
2017-08-21T15:40:23.732Z,46.8
2017-08-21T15:41:23.418Z,46.2
2017-08-21T15:42:22.616Z,45.6
2017-08-21T15:43:21.813Z,46.6
2017-08-21T15:44:21.513Z,45.6
2017-08-21T15:45:20.590Z,45.8
2017-08-21T15:46:20.176Z,46.8
2017-08-21T15:47:19.748Z,45.9
2017-08-21T15:48:19.199Z,46.6
2017-08-21T15:51:17.058Z,46.2
2017-08-21T15:52:16.640Z,45.8
2017-08-21T15:53:15.831Z,46.8
2017-08-21T15:54:14.915Z,45.2
2017-08-21T15:55:14.492Z,45
2017-08-21T15:56:14.202Z,45.9
2017-08-21T15:59:12.183Z,47.1
2017-08-21T16:00:11.960Z,46.7
2017-08-21T16:01:11.150Z,46.8
2017-08-21T16:02:10.347Z,46.5